createdAt,value
2022-09-05T00:00:19.761Z,102043.81
2022-09-05T00:02:55.686Z,102047.69
2022-09-05T00:05:41.298Z,102035.50
2022-09-05T00:08:30.862Z,101974.00
2022-09-05T00:11:39.767Z,102002.06
2022-09-05T00:14:34.347Z,102046.91
2022-09-05T00:17:21.128Z,102048.63
2022-09-05T00:24:19.005Z,102048.13
2022-09-05T00:24:32.906Z,101953.34
2022-09-05T00:26:03.559Z,102010.81
2022-09-05T00:28:40.631Z,101995.44
2022-09-05T00:31:54.937Z,102032.78
2022-09-05T00:34:22.337Z,102039.00
2022-09-05T00:36:55.078Z,102049.16
2022-09-05T00:39:25.903Z,102040.19
2022-09-05T00:41:57.030Z,101980.97
2022-09-05T00:44:27.076Z,102038.47
2022-09-05T00:47:01.487Z,102053.41
2022-09-05T00:49:36.438Z,102039.00
2022-09-05T00:52:07.382Z,102042.84
2022-09-05T00:55:00.541Z,101966.72
2022-09-05T00:57:46.874Z,101920.50
2022-09-05T01:00:18.145Z,102014.75
2022-09-05T01:03:17.950Z,101949.44
2022-09-05T01:06:13.953Z,102027.31
2022-09-05T01:09:07.671Z,101992.72
2022-09-05T01:11:45.372Z,102041.06
2022-09-05T01:14:27.458Z,101931.47
2022-09-05T01:17:22.403Z,101926.16
2022-09-05T01:20:18.958Z,102000.47
2022-09-05T01:23:19.812Z,101914.94
2022-09-05T01:26:18.858Z,101962.97
2022-09-05T01:29:16.678Z,101901.69
2022-09-05T01:32:01.670Z,101942.25
2022-09-05T01:34:39.362Z,101922.56
2022-09-05T01:37:32.972Z,101997.72
2022-09-05T01:40:16.839Z,101901.91
2022-09-05T01:42:55.984Z,102024.00
2022-09-05T01:45:39.232Z,101875.16
2022-09-05T01:48:11.907Z,102031.81
2022-09-05T01:50:48.396Z,102017.53
2022-09-05T01:53:26.253Z,101921.09
2022-09-05T01:56:11.662Z,102029.44
2022-09-05T01:58:54.586Z,102036.09
2022-09-05T02:01:35.835Z,101885.19
2022-09-05T02:04:29.641Z,101995.72
2022-09-05T02:07:29.908Z,102007.41
2022-09-05T02:10:11.937Z,101915.41
2022-09-05T02:13:01.850Z,102022.75
2022-09-05T02:15:59.509Z,102025.44
2022-09-05T02:18:49.182Z,102008.72
2022-09-05T02:21:25.557Z,102037.06
2022-09-05T02:24:02.689Z,101959.38
2022-09-05T02:26:34.673Z,102009.97
2022-09-05T02:29:11.395Z,102037.97
2022-09-05T02:31:46.929Z,102021.44
2022-09-05T02:34:21.778Z,102017.44
2022-09-05T02:36:55.202Z,102031.34
2022-09-05T02:45:01.378Z,102023.13
2022-09-05T02:45:12.666Z,102040.09
2022-09-05T02:45:28.268Z,102000.88
2022-09-05T02:48:04.184Z,102050.16
2022-09-05T02:52:57.949Z,101987.66
2022-09-05T02:57:40.980Z,101911.16
2022-09-05T02:58:04.907Z,102029.63
2022-09-05T03:00:03.149Z,101974.97
2022-09-05T03:02:37.173Z,102021.53
2022-09-05T03:05:11.882Z,101993.69
2022-09-05T03:08:07.902Z,101955.25
2022-09-05T03:11:16.682Z,101967.81
2022-09-05T03:14:24.547Z,101949.81
2022-09-05T03:17:21.508Z,102034.94
2022-09-05T03:20:25.147Z,101959.78
2022-09-05T03:23:24.195Z,102036.94
2022-09-05T03:26:42.696Z,102036.63
2022-09-05T03:29:41.696Z,102006.59
2022-09-05T03:32:51.735Z,102030.81
2022-09-05T03:35:54.888Z,102052.31
2022-09-05T03:39:14.993Z,101968.59
2022-09-05T03:42:14.939Z,101957.75
2022-09-05T03:44:57.366Z,101999.06
2022-09-05T03:48:02.280Z,102051.31
2022-09-05T03:55:42.709Z,102008.56
2022-09-05T03:57:17.335Z,101967.09
2022-09-05T03:57:38.501Z,101906.66
2022-09-05T04:00:18.079Z,101950.25
2022-09-05T04:07:08.711Z,101975.56
2022-09-05T04:08:27.565Z,102004.38
2022-09-05T04:08:46.388Z,102059.06
2022-09-05T04:11:16.730Z,102016.69
2022-09-05T04:13:49.315Z,102065.41
2022-09-05T04:16:21.381Z,101993.44
2022-09-05T04:18:53.027Z,102062.00
2022-09-05T04:21:25.563Z,102022.03
2022-09-05T04:24:02.781Z,102016.88
2022-09-05T04:26:56.334Z,102000.28
2022-09-05T04:29:33.199Z,102077.28
2022-09-05T04:32:17.966Z,102054.44
2022-09-05T04:34:59.756Z,102051.75
2022-09-05T04:37:48.189Z,102040.31
2022-09-05T04:40:35.649Z,101972.88
2022-09-05T04:43:06.643Z,101991.72
2022-09-05T04:45:41.984Z,102090.50
2022-09-05T04:48:15.826Z,102028.72
2022-09-05T04:51:03.086Z,102077.09
2022-09-05T04:53:39.483Z,102072.31
2022-09-05T04:56:12.435Z,102030.13
2022-09-05T04:59:32.727Z,102085.06
2022-09-05T05:06:12.240Z,102071.25
2022-09-05T05:06:17.342Z,102091.41
2022-09-05T05:07:21.126Z,102085.69
2022-09-05T05:10:19.489Z,102088.44
2022-09-05T05:17:54.817Z,101946.94
2022-09-05T05:18:11.489Z,102084.66
2022-09-05T05:18:55.995Z,102034.84
2022-09-05T05:21:33.289Z,102032.94
2022-09-05T05:24:09.386Z,101997.63
2022-09-05T05:26:49.459Z,102099.47
2022-09-05T05:29:27.192Z,102027.31
2022-09-05T05:31:56.824Z,102062.66
2022-09-05T05:34:26.235Z,102076.56
2022-09-05T05:37:00.774Z,102101.38
2022-09-05T05:39:29.481Z,102073.03
2022-09-05T05:41:58.153Z,102070.59
2022-09-05T05:44:27.994Z,102007.44
2022-09-05T05:47:00.112Z,102017.81
2022-09-05T05:49:45.506Z,102091.56
2022-09-05T05:52:42.646Z,102062.66
2022-09-05T05:55:52.298Z,102090.19
2022-09-05T05:58:32.998Z,102006.63
2022-09-05T06:01:44.158Z,102003.88
2022-09-05T06:04:44.719Z,102082.25
2022-09-05T06:07:22.643Z,102097.47
2022-09-05T06:14:48.846Z,102095.50
2022-09-05T06:15:02.193Z,102015.84
2022-09-05T06:16:58.324Z,102102.03
2022-09-05T06:21:18.165Z,102104.13
2022-09-05T06:23:08.315Z,102099.66
2022-09-05T06:26:18.508Z,102059.91
2022-09-05T06:29:00.568Z,102098.44
2022-09-05T06:31:48.045Z,101928.66
2022-09-05T06:34:35.845Z,101934.88
2022-09-05T06:37:13.252Z,102093.81
2022-09-05T06:40:00.694Z,102056.16
2022-09-05T06:42:42.948Z,102067.78
2022-09-05T06:45:38.147Z,102028.56
2022-09-05T06:48:24.952Z,102046.72
2022-09-05T06:52:11.724Z,102081.97
2022-09-05T06:55:12.557Z,102090.47
2022-09-05T06:58:15.420Z,102092.25
2022-09-05T07:00:46.671Z,102062.03
2022-09-05T07:03:26.721Z,102107.09
2022-09-05T07:05:58.689Z,102079.50
2022-09-05T07:08:34.827Z,102078.78
2022-09-05T07:11:15.009Z,102080.31
2022-09-05T07:13:58.182Z,102039.00
2022-09-05T07:16:38.917Z,102091.25
2022-09-05T07:19:19.228Z,102092.56
2022-09-05T07:22:00.714Z,102035.41
2022-09-05T07:24:54.037Z,102117.75
2022-09-05T07:27:28.873Z,102117.50
2022-09-05T07:30:01.086Z,102031.28
2022-09-05T07:32:31.501Z,102117.63
2022-09-05T07:35:02.744Z,102079.81
2022-09-05T07:37:36.946Z,102101.97
2022-09-05T07:40:26.327Z,102123.84
2022-09-05T07:43:08.695Z,102055.72
2022-09-05T07:45:50.832Z,102000.28
2022-09-05T07:48:34.221Z,102109.19
2022-09-05T07:56:46.407Z,102112.22
2022-09-05T07:57:01.482Z,102116.28
2022-09-05T07:57:15.540Z,102088.00
2022-09-05T07:59:35.039Z,102022.69
2022-09-05T08:02:06.517Z,102114.97
2022-09-05T08:04:35.828Z,102032.09
2022-09-05T08:07:48.309Z,102062.31
2022-09-05T08:10:08.904Z,102027.91
2022-09-05T08:13:22.838Z,102055.13
2022-09-05T08:16:00.727Z,102100.38
2022-09-05T08:18:23.867Z,102044.44
2022-09-05T08:20:55.094Z,102013.31
2022-09-05T08:23:42.315Z,102082.97
2022-09-05T08:26:12.367Z,102099.16
2022-09-05T08:28:54.043Z,102065.69
2022-09-05T08:31:26.544Z,101977.53
2022-09-05T08:33:59.798Z,102086.13
2022-09-05T08:36:33.096Z,102041.09
2022-09-05T08:39:06.408Z,102092.31
2022-09-05T08:41:51.038Z,102067.53
2022-09-05T08:46:42.801Z,102085.44
2022-09-05T08:47:26.280Z,102095.88
2022-09-05T08:50:17.378Z,102024.28
2022-09-05T08:52:56.231Z,102049.94
2022-09-05T08:55:34.256Z,102059.53
2022-09-05T08:58:29.810Z,102073.38
2022-09-05T09:01:07.798Z,102091.22
2022-09-05T09:03:53.605Z,102099.66
2022-09-05T09:06:39.419Z,102053.53
2022-09-05T09:09:14.092Z,102081.41
2022-09-05T09:11:44.428Z,102103.00
2022-09-05T09:14:49.887Z,102092.56
2022-09-05T09:17:28.361Z,102032.97
2022-09-05T09:20:29.844Z,102083.97
2022-09-05T09:23:03.260Z,102091.25
2022-09-05T09:25:37.333Z,102046.38
2022-09-05T09:28:49.405Z,101995.75
2022-09-05T09:31:22.811Z,101996.59
2022-09-05T09:33:59.824Z,102071.00
2022-09-05T09:36:57.543Z,101933.41
2022-09-05T09:39:39.596Z,102036.38
2022-09-05T09:42:38.638Z,102060.34
2022-09-05T09:45:28.490Z,102032.50
2022-09-05T09:48:34.354Z,102052.31
2022-09-05T09:51:20.015Z,102028.25
2022-09-05T09:54:01.845Z,101984.16
2022-09-05T09:57:07.798Z,102027.53
2022-09-05T10:00:09.701Z,102046.53
2022-09-05T10:06:50.958Z,102056.31
2022-09-05T10:10:45.324Z,101948.50
2022-09-05T10:10:58.570Z,102013.59
2022-09-05T10:13:08.260Z,101973.91
2022-09-05T10:15:52.700Z,102043.91
2022-09-05T10:18:55.106Z,102047.22
2022-09-05T10:25:19.287Z,101939.09
2022-09-05T10:28:15.012Z,101917.19
2022-09-05T10:32:10.324Z,102004.72
2022-09-05T10:35:17.775Z,101896.91
2022-09-05T10:36:35.024Z,101944.19
2022-09-05T10:39:22.545Z,101912.91
2022-09-05T10:41:57.216Z,101967.56
2022-09-05T10:44:45.714Z,101919.38
2022-09-05T10:47:33.065Z,102032.38
2022-09-05T10:50:15.016Z,101975.25
2022-09-05T10:53:26.592Z,101972.97
2022-09-05T10:56:09.618Z,101982.97
2022-09-05T11:02:15.749Z,101949.47
2022-09-05T11:02:27.234Z,101955.09
2022-09-05T11:04:49.566Z,102007.00
2022-09-05T11:07:45.693Z,101859.19
2022-09-05T11:10:33.184Z,101971.78
2022-09-05T11:13:16.163Z,101871.78
2022-09-05T11:16:16.709Z,101998.00
2022-09-05T11:19:03.991Z,101888.66
2022-09-05T11:22:13.797Z,101888.16
2022-09-05T11:24:56.970Z,101983.63
2022-09-05T11:27:35.242Z,101986.59
2022-09-05T11:30:09.243Z,101884.31
2022-09-05T11:37:04.244Z,101870.69
2022-09-05T11:40:02.214Z,101985.56
2022-09-05T11:40:28.520Z,101963.53
2022-09-05T11:43:11.786Z,101910.41
2022-09-05T11:46:08.931Z,101944.19
2022-09-05T11:49:14.414Z,101854.44
2022-09-05T11:52:37.370Z,101971.44
2022-09-05T11:55:26.144Z,101815.22
2022-09-05T11:58:43.698Z,101976.06
2022-09-05T12:01:41.114Z,101999.28
2022-09-05T12:04:28.975Z,101875.09
2022-09-05T12:07:31.820Z,102000.13
2022-09-05T12:10:46.752Z,101990.25
2022-09-05T12:13:24.543Z,101900.91
2022-09-05T12:16:07.561Z,101928.94
2022-09-05T12:18:44.673Z,101896.09
2022-09-05T12:21:31.675Z,101991.47
2022-09-05T12:25:15.385Z,101897.69
2022-09-05T12:27:38.397Z,101953.63
2022-09-05T12:30:15.423Z,101990.69
2022-09-05T12:35:50.031Z,101979.19
2022-09-05T12:40:44.519Z,101905.84
2022-09-05T12:40:55.473Z,101918.03
2022-09-05T12:42:51.165Z,101900.78
2022-09-05T12:45:47.623Z,101982.59
2022-09-05T12:48:43.730Z,101972.66
2022-09-05T12:51:45.334Z,101948.19
2022-09-05T12:54:33.477Z,101817.06
2022-09-05T13:01:12.773Z,101968.34
2022-09-05T13:03:08.336Z,101915.50
2022-09-05T13:03:37.832Z,101853.16
2022-09-05T13:06:04.927Z,101808.41
2022-09-05T13:08:46.985Z,101854.44
2022-09-05T13:14:52.311Z,101847.22
2022-09-05T13:17:17.373Z,101972.22
2022-09-05T13:19:48.539Z,101844.44
2022-09-05T13:22:23.814Z,101951.41
2022-09-05T13:25:01.352Z,101845.63
2022-09-05T13:27:37.414Z,101884.50
2022-09-05T13:32:43.502Z,101945.78
2022-09-05T13:38:01.343Z,101896.88
2022-09-05T13:38:07.303Z,101809.56
2022-09-05T13:42:29.357Z,101799.69
2022-09-05T13:45:08.310Z,101865.16
2022-09-05T13:48:07.361Z,101921.09
2022-09-05T13:51:12.195Z,101946.16
2022-09-05T13:53:53.829Z,101943.97
2022-09-05T13:56:53.428Z,101899.75
2022-09-05T14:09:38.524Z,101823.13
2022-09-05T14:12:33.882Z,101759.06
2022-09-05T14:25:45.330Z,101795.16
2022-09-05T14:28:56.148Z,101810.38
2022-09-05T14:37:37.006Z,101800.75
2022-09-05T14:37:40.625Z,101919.63
2022-09-05T14:48:33.017Z,101851.06
2022-09-05T14:52:02.891Z,101817.81
2022-09-05T14:55:23.858Z,101780.56
2022-09-05T15:02:51.031Z,101804.84
2022-09-05T15:07:36.215Z,101901.09
2022-09-05T15:12:18.559Z,101893.03
2022-09-05T15:13:42.894Z,101858.06
2022-09-05T15:16:25.065Z,101758.66
2022-09-05T15:22:33.423Z,101841.63
2022-09-05T15:25:17.087Z,101742.25
2022-09-05T15:28:26.276Z,101733.31
2022-09-05T15:31:33.942Z,101831.78
2022-09-05T15:34:24.380Z,101889.38
2022-09-05T15:37:09.012Z,101880.78
2022-09-05T15:46:17.142Z,101746.19
2022-09-05T15:48:56.900Z,101882.22
2022-09-05T15:54:53.804Z,101792.97
2022-09-05T15:58:27.297Z,101704.91
2022-09-05T16:01:30.545Z,101879.22
2022-09-05T16:10:41.146Z,101791.16
2022-09-05T16:10:44.978Z,101697.22
2022-09-05T16:12:45.036Z,101865.81
2022-09-05T16:19:20.768Z,101752.03
2022-09-05T16:23:14.097Z,101710.34
2022-09-05T16:23:23.590Z,101718.22
2022-09-05T16:24:58.630Z,101777.16
2022-09-05T16:27:47.582Z,101754.00
2022-09-05T16:30:26.482Z,101863.28
2022-09-05T16:33:02.546Z,101864.09
2022-09-05T16:35:42.917Z,101862.53
2022-09-05T16:38:25.946Z,101786.19
2022-09-05T16:41:21.029Z,101736.19
2022-09-05T16:44:05.180Z,101695.13
2022-09-05T16:46:43.060Z,101828.47
2022-09-05T16:49:43.020Z,101778.31
2022-09-05T16:52:35.709Z,101878.78
2022-09-05T16:55:18.409Z,101789.53
2022-09-05T16:58:14.244Z,101698.16
2022-09-05T17:01:00.488Z,101734.91
2022-09-05T17:03:37.596Z,101864.38
2022-09-05T17:06:25.948Z,101702.00
2022-09-05T17:09:30.705Z,101788.03
2022-09-05T17:12:19.062Z,101675.22
2022-09-05T17:15:01.045Z,101732.78
2022-09-05T17:18:19.790Z,101761.06
2022-09-05T17:20:36.080Z,101713.47
2022-09-05T17:27:19.925Z,101813.28
2022-09-05T17:29:31.431Z,101655.63
2022-09-05T17:31:23.752Z,101675.06
2022-09-05T17:32:56.863Z,101688.50
2022-09-05T17:36:08.439Z,101653.19
2022-09-05T17:39:07.514Z,101751.56
2022-09-05T17:42:08.758Z,101802.22
2022-09-05T17:44:48.638Z,101827.06
2022-09-05T17:47:35.894Z,101804.78
2022-09-05T17:50:57.268Z,101755.00
2022-09-05T17:53:38.889Z,101673.47
2022-09-05T17:56:27.859Z,101676.00
2022-09-05T17:59:09.652Z,101670.97
2022-09-05T18:01:48.552Z,101772.44
2022-09-05T18:04:49.915Z,101821.44
2022-09-05T18:07:48.363Z,101821.78
2022-09-05T18:10:27.836Z,101799.00
2022-09-05T18:13:32.688Z,101779.44
2022-09-05T18:16:12.037Z,101680.84
2022-09-05T18:19:33.241Z,101740.22
2022-09-05T18:21:51.737Z,101689.09
2022-09-05T18:28:03.642Z,101730.72
2022-09-05T18:30:38.301Z,101719.44
2022-09-05T18:33:53.273Z,101838.63
2022-09-05T18:36:34.101Z,101831.63
2022-09-05T18:39:40.518Z,101780.56
2022-09-05T18:42:26.230Z,101792.59
2022-09-05T18:45:14.876Z,101825.31
2022-09-05T18:47:59.493Z,101732.28
2022-09-05T18:50:34.397Z,101767.69
2022-09-05T18:53:09.349Z,101672.22
2022-09-05T18:56:12.706Z,101837.59
2022-09-05T18:58:51.614Z,101719.25
2022-09-05T19:01:28.557Z,101705.41
2022-09-05T19:04:01.159Z,101728.03
2022-09-05T19:06:45.126Z,101725.72
2022-09-05T19:09:26.704Z,101651.72
2022-09-05T19:12:31.623Z,101788.25
2022-09-05T19:14:55.966Z,101787.09
2022-09-05T19:17:36.708Z,101768.53
2022-09-05T19:20:47.328Z,101665.84
2022-09-05T19:23:22.956Z,101672.06
2022-09-05T19:25:54.405Z,101780.50
2022-09-05T19:36:57.052Z,101668.13
2022-09-05T19:36:59.133Z,101768.84
2022-09-05T19:37:12.155Z,101640.66
2022-09-05T19:42:08.160Z,101809.44
2022-09-05T19:47:35.379Z,101776.91
2022-09-05T19:47:37.190Z,101648.66
2022-09-05T19:48:35.822Z,101725.81
2022-09-05T19:51:16.075Z,101770.59
2022-09-05T19:54:04.930Z,101802.72
2022-09-05T19:57:07.869Z,101835.25
2022-09-05T19:59:45.186Z,101667.91
2022-09-05T20:02:46.469Z,101825.19
2022-09-05T20:05:50.948Z,101673.59
2022-09-05T20:08:32.091Z,101673.63
2022-09-05T20:11:37.434Z,101832.28
2022-09-05T20:14:46.814Z,101649.38
2022-09-05T20:17:43.100Z,101781.66
2022-09-05T20:20:17.428Z,101831.91
2022-09-05T20:22:53.691Z,101778.28
2022-09-05T20:25:35.202Z,101632.47
2022-09-05T20:28:07.166Z,101830.19
2022-09-05T20:30:43.229Z,101727.19
2022-09-05T20:33:19.407Z,101741.88
2022-09-05T20:40:16.585Z,101841.25
2022-09-05T20:43:16.042Z,101790.81
2022-09-05T20:43:32.029Z,101780.63
2022-09-05T20:44:22.712Z,101854.16
2022-09-05T20:51:27.942Z,101751.44
2022-09-05T20:54:16.034Z,101736.69
2022-09-05T20:54:20.342Z,101842.06
2022-09-05T20:55:39.731Z,101749.69
2022-09-05T20:58:13.087Z,101814.91
2022-09-05T21:01:15.723Z,101716.06
2022-09-05T21:03:57.782Z,101717.84
2022-09-05T21:06:34.395Z,101775.34
2022-09-05T21:09:24.386Z,101801.03
2022-09-05T21:11:56.366Z,101737.66
2022-09-05T21:14:29.679Z,101712.41
2022-09-05T21:17:14.791Z,101747.31
2022-09-05T21:20:01.175Z,101766.13
2022-09-05T21:22:38.212Z,101755.47
2022-09-05T21:25:23.941Z,101701.38
2022-09-05T21:28:03.262Z,101779.56
2022-09-05T21:30:34.730Z,101690.72
2022-09-05T21:33:07.110Z,101624.41
2022-09-05T21:35:44.468Z,101744.50
2022-09-05T21:38:13.821Z,101757.66
2022-09-05T21:40:41.449Z,101739.50
2022-09-05T21:47:34.398Z,101794.53
2022-09-05T21:47:43.873Z,101773.34
2022-09-05T21:48:56.639Z,101820.94
2022-09-05T21:51:25.310Z,101706.97
2022-09-05T21:55:10.710Z,101705.84
2022-09-05T21:59:21.157Z,101810.75
2022-09-05T21:59:45.414Z,101790.22
2022-09-05T22:02:13.648Z,101768.50
2022-09-05T22:04:43.272Z,101746.59
2022-09-05T22:07:12.113Z,101791.59
2022-09-05T22:09:39.180Z,101790.66
2022-09-05T22:12:14.560Z,101782.38
2022-09-05T22:14:53.150Z,101722.06
2022-09-05T22:17:22.955Z,101784.69
2022-09-05T22:19:49.633Z,101686.09
2022-09-05T22:22:20.155Z,101772.22
2022-09-05T22:24:52.460Z,101788.22
2022-09-05T22:27:21.093Z,101687.84
2022-09-05T22:29:50.674Z,101750.84
2022-09-05T22:32:18.994Z,101725.53
2022-09-05T22:35:15.762Z,101654.53
2022-09-05T22:37:59.313Z,101743.38
2022-09-05T22:40:27.719Z,101740.47
2022-09-05T22:42:55.648Z,101682.22
2022-09-05T22:45:22.331Z,101754.91
2022-09-05T22:47:49.161Z,101745.34
2022-09-05T22:50:16.025Z,101721.69
2022-09-05T22:52:46.732Z,101744.03
2022-09-05T22:55:15.456Z,101753.44
2022-09-05T22:57:43.764Z,101692.72
2022-09-05T23:00:11.656Z,101623.00
2022-09-05T23:02:38.604Z,101646.84
2022-09-05T23:05:06.976Z,101723.16
2022-09-05T23:07:33.754Z,101701.31
2022-09-05T23:10:00.626Z,101740.31
2022-09-05T23:12:28.822Z,101769.06
2022-09-05T23:14:55.722Z,101769.22
2022-09-05T23:17:24.084Z,101775.91
2022-09-05T23:19:50.778Z,101733.16
2022-09-05T23:22:26.145Z,101729.72
2022-09-05T23:24:54.161Z,101563.44
2022-09-05T23:27:20.890Z,101720.34
2022-09-05T23:29:49.178Z,101760.09
2022-09-05T23:32:15.960Z,101783.25
2022-09-05T23:34:42.702Z,101717.50
2022-09-05T23:37:09.546Z,101709.25
2022-09-05T23:39:36.438Z,101682.22
2022-09-05T23:42:03.679Z,101760.22
2022-09-05T23:44:30.394Z,101617.66
2022-09-05T23:47:00.321Z,101650.47
2022-09-05T23:49:27.071Z,101740.97
2022-09-05T23:51:56.766Z,101642.88
2022-09-05T23:54:23.640Z,101626.53
2022-09-05T23:56:50.469Z,101743.72
2022-09-05T23:59:17.177Z,101677.50
